Lake Toxaway, NC (28747)

4:34 PM EDT on August 30, 2016 (GMT -0400)
Rocky Mountain | | Change Station

Elev 3245 ft 35.14 °N, 82.92 °W | Updated 5 seconds ago

Overcast
Overcast
80.2 °F
Feels Like 82 °F
N
0.4
Wind Variable Wind from North
Gusts 2.5 mph

Today
High -- | Low -- °F
--% Chance of Precip.
Yesterday
High -- | Low -- °F
Precip. -- in
Pressure 30.11 in
Visibility 10.0 miles
Clouds Mostly Cloudy 6500 ft
Overcast 8000 ft
Heat Index 82 °F
Dew Point 64 °F
Humidity 57%
Rainfall 0.00 in
Snow Depth Not available.
7:03 AM 8:00 PM
Waning Crescent, 2% visible
METAR K1A5 302020Z AUTO 00000KT 10SM BKN065 OVC080 30/17 A3011 RMK AO2 T02960165
Pressure 30.11 in
Visibility 10.0 miles
Clouds Mostly Cloudy 6500 ft
Overcast 8000 ft
Heat Index 82 °F
Dew Point 64 °F
Humidity 57%
Rainfall 0.00 in
Snow Depth Not available.
7:03 AM 8:00 PM
Waning Crescent, 2% visible
METAR K1A5 302020Z AUTO 00000KT 10SM BKN065 OVC080 30/17 A3011 RMK AO2 T02960165

10-Day Weather Forecast

Almanac

Astronomy

Aug. 30, 2016 Rise Set
Actual Time
Civil Twilight
Nautical Twilight
Astronomical Twilight
Moon
Length of Visible Light
Length of Day
Tomorrow will be .
, % of the Moon is Illuminated

Today's Extremes

State Highs State Lows

Community

WunderPhotos

Upload Photos

1,935,889 photos uploaded!

WunderBlog® & News

Nearby

Air Quality

  Air Quality AQ Index Pollutant
Not available.

Snow Depth

Station Depth Elevation

Earthquake Activity

City Distance Mag. Time & Date
Minimum magnitude displayed is 2.5.

Coastal Water Temperatures

Place Temperature

Stations

Nearby Weather Stations

Station Location Temp. Windchill Dew Point Humidity Wind Precip. Elev Updated Type
                   

Watches & Warnings

There are currently no watches in effect.